Bryan, TX (77801)

10:08 AM CST on December 08, 2016 (GMT -0600)
Woodland Hights | | Change Station
Active Advisory: Freeze Warning

Elev 335 ft 30.65 °N, 96.36 °W | Updated 8 minutes ago

Overcast
Overcast
42.4 °F
Feels Like 42 °F
N
2.0
Wind Variable Wind from North
Gusts 11.0 mph

Today
High -- | Low -- °F
--% Chance of Precip.
Yesterday
High -- | Low -- °F
Precip. -- in
Pressure 30.51 in
Visibility 10.0 miles
Clouds Overcast 1300 ft
Windchill 42 °F
Dew Point 39 °F
Humidity 88%
Rainfall 0.02 in
Snow Depth Not available.
7:10 AM 5:24 PM
Waxing Gibbous, 64% visible
METAR KCLL 081553Z 01016KT 10SM OVC013 06/03 A3051 RMK AO2 SLP330 T00560028
Pressure 30.51 in
Visibility 10.0 miles
Clouds Overcast 1300 ft
Windchill 42 °F
Dew Point 39 °F
Humidity 88%
Rainfall 0.02 in
Snow Depth Not available.
7:10 AM 5:24 PM
Waxing Gibbous, 64% visible
METAR KCLL 081553Z 01016KT 10SM OVC013 06/03 A3051 RMK AO2 SLP330 T00560028

10-Day Weather Forecast

Almanac

Astronomy

Dec. 08, 2016 Rise Set
Actual Time
Civil Twilight
Nautical Twilight
Astronomical Twilight
Moon
Length of Visible Light
Length of Day
Tomorrow will be .
, % of the Moon is Illuminated

Today's Extremes

State Highs State Lows

Community

WunderPhotos

Upload Photos

1,956,274 photos uploaded!

WunderBlog® & News

Nearby

Air Quality

  Air Quality AQ Index Pollutant
Not available.

Snow Depth

Station Depth Elevation

Earthquake Activity

City Distance Mag. Time & Date
Minimum magnitude displayed is 2.5.

Coastal Water Temperatures

Place Temperature

Stations

Nearby Weather Stations

Station Location Temp. Windchill Dew Point Humidity Wind Precip. Elev Updated Type
                   

Watches & Warnings

Freeze Warning
Issued: 3:47 AM CST Dec. 8, 2016 – National Weather Service

... Freeze warning in effect from midnight tonight to 9 am CST
Friday...

The National Weather Service in Houston/Galveston has issued a
freeze warning... which is in effect from midnight tonight to 9 am
CST Friday.

* Event... temperatures 29 to 32 degrees

* timing... midnight to 9 am CST Friday

* impact... damage to tender vegetation and sensitive plants may
occur and these plants should be protected

Precautionary/preparedness actions...

A freeze warning means sub-freezing temperatures are imminent or
highly likely. These conditions will kill crops and other
sensitive vegetation.